Fort Morgan, CO

1:11 AM MST on December 11, 2016 (GMT -0700)
Fort Morgan | | Change Station

Elev 4334 ft 40.26 °N, 103.80 °W | Updated 1 minute ago

Overcast
Overcast
28.7 °F
Feels Like 29 °F
N
0.0
Wind Variable Wind from WSW
Gusts 0.0 mph

Today
High -- | Low -- °F
--% Chance of Precip.
Yesterday
High -- | Low -- °F
Precip. -- in
Pressure 29.72 in
Visibility 10.0 miles
Clouds Overcast 10000 ft
Windchill 29 °F
Dew Point 24 °F
Humidity 81%
Rainfall 0.00 in
Snow Depth Not available.
7:08 AM 4:29 PM
Waxing Gibbous, 90% visible
METAR KFMM 110755Z AUTO 26004KT 10SM OVC100 01/M03 A2972 RMK AO2 T00081035
Pressure 29.72 in
Visibility 10.0 miles
Clouds Overcast 10000 ft
Windchill 29 °F
Dew Point 24 °F
Humidity 81%
Rainfall 0.00 in
Snow Depth Not available.
7:08 AM 4:29 PM
Waxing Gibbous, 90% visible
METAR KFMM 110755Z AUTO 26004KT 10SM OVC100 01/M03 A2972 RMK AO2 T00081035

10-Day Weather Forecast

Almanac

Astronomy

Dec. 11, 2016 Rise Set
Actual Time
Civil Twilight
Nautical Twilight
Astronomical Twilight
Moon
Length of Visible Light
Length of Day
Tomorrow will be .
, % of the Moon is Illuminated

Today's Extremes

State Highs State Lows

Community

WunderPhotos

Upload Photos

1,956,706 photos uploaded!

WunderBlog® & News

Nearby

Air Quality

  Air Quality AQ Index Pollutant
Not available.

Snow Depth

Station Depth Elevation

Earthquake Activity

City Distance Mag. Time & Date
Minimum magnitude displayed is 2.5.

Coastal Water Temperatures

Place Temperature

Stations

Nearby Weather Stations

Station Location Temp. Windchill Dew Point Humidity Wind Precip. Elev Updated Type
                   

Watches & Warnings

There are currently no watches in effect.